x

Boston 16 Nm East Of Boston, Ma (44013) Wave Buoy

8:50am - Fri 27th Mar 2015 All times are EDT. -4 hours from GMT.

  • Sig Wave height 2.0ft
  • Swell Direction
  • Peak Period 8s
  • Average Period 4s
  • Wind
    9mph, 11mph gusts
  • Sea Temp 37°f
  • Air Temp 38°f
  • Sea Pressure 1006.8mb
  • Boston 16 Nm East Of Boston, Ma
  • Boston 16 Nm East Of Boston, Ma

More Historic Weather Station data

Upgrade to MSW Pro to gain access to the past 30 days of data for over 8000 Wavebouys and Weather Stations around the globe.

Join Pro

Comparision Forecast

View Surf forecast
   
Fri 03/27 8:50am 2ft 8s 4s 9 11 mph 1006.8mb 37f 38f
7:50am 2ft 4s 4s 9 11 mph 1006.8mb 37f 38f
6:50am 2ft 4s 4s 13
mph
1005.5mb 37f 38f
5:50am 2ft 8s 4s 13 16 mph 1004.5mb 37f 37f
4:50am 2ft 8s 4s 16 18 mph 1004.3mb 37f 38f
3:50am 2ft 7s 4s 13
mph
1003.6mb 37f 38f
2:50am 2ft 7s 5s 11 13 mph 1003.8mb 37f 38f
1:50am 1.6ft 7s 4s 9 11 mph 1004.2mb 37f 38f
12:50am 1.3ft 8s 4s 11
mph
1003.9mb 37f 39f
Thu 03/26 11:50pm 1.3ft 6s 5s 11 13 mph 1003.9mb 37f 40f
10:50pm 1.3ft 4s 4s 9 11 mph 1004.3mb 37f 41f
9:50pm 1.3ft 4s 4s 9 11 mph 1003.9mb 38f 40f
8:50pm 1.3ft 4s 4s 7
mph
1004mb 38f 42f
7:50pm 1.3ft 3s 4s 4
mph
1003.7mb 38f 44f
6:50pm 1.3ft 3s 4s 4 7 mph 1004mb 37f 47f
5:50pm 1.6ft 4s 4s 2 7 mph 1004.7mb 37f 42f
4:50pm 1.6ft 4s 4s 7 9 mph 1005.1mb 37f 42f
3:50pm 2ft 4s 3s 11 13 mph 1006mb 37f 40f
2:50pm 1.6ft 3s 3s 13
mph
1007.3mb 37f 41f
1:50pm 1.3ft 6s 4s 7
mph
1008.6mb 37f 42f
12:50pm 1.3ft 5s 4s 7 9 mph 1010.3mb 37f 42f
11:50am 1.3ft 6s 4s 9
mph
1011.9mb 37f 41f
10:50am 1.3ft 6s 4s 11 13 mph 1013.9mb 36f 41f
9:50am 1.3ft 6s 4s 11
mph
1014.3mb 36f 41f
8:50am 1.3ft 4s 4s 7 9 mph 1014.4mb 36f 40f
7:50am 1.6ft 4s 4s 7 11 mph 1014.6mb 36f 40f
6:50am 1.6ft 4s 3s 13 16 mph 1014.9mb 36f 41f
5:50am 1.6ft 4s 3s 13
mph
1015.4mb 36f 40f
4:50am 1.6ft 4s 4s 11 13 mph 1015.8mb 36f 39f
3:50am 2ft 4s 4s 9
mph
1016.8mb 36f 38f
2:50am 1.6ft 4s 4s 9 11 mph 1017.9mb 36f 38f
1:50am 1.6ft 3s 3s 7
mph
1019.9mb 36f 38f
12:50am 1.3ft 3s 3s 9 11 mph 1021.2mb 36f 37f
Wed 03/25 11:50pm 1.6ft 3s 3s 13 16 mph 1021.9mb 36f 36f
10:50pm 1.6ft 4s 3s 13 16 mph 1023.2mb 36f 36f
9:50pm 1.3ft 3s 3s 16 18 mph 1024.2mb 36f 36f
8:50pm 1.6ft 3s 3s 16 18 mph 1025mb 36f 37f
7:50pm 2ft 4s 3s 18 22 mph 1024.6mb 36f 38f
6:50pm 2ft 4s 3s 13 16 mph 1025mb 36f 39f
5:50pm 2ft 3s 3s 16 20 mph 1025.2mb 36f 40f
4:50pm 1.6ft 3s 3s 16 20 mph 1025.2mb 37f 38f
3:50pm 1ft 2s 3s 16 18 mph 1026.1mb 37f 38f
2:50pm 0.7ft  -  4s 9 11 mph 1027.3mb 37f 37f
1:50pm 0.7ft  -  4s 9 11 mph 1028.5mb 38f 37f
12:50pm 0.7ft  -  5s 7
mph
1029.6mb 38f 36f
11:50am 0.7ft  -  4s 2
mph
1030.3mb 37f 36f
10:50am 0.7ft  -  5s  -  2 mph 1030.5mb 37f 35f
9:50am 0.7ft  -  4s 2 4 mph 1030.2mb 36f 35f
8:50am 0.7ft  -  4s 2
mph
1029.7mb 36f 36f
7:50am 0.7ft  -  4s 7 9 mph 1030.2mb 36f 34f
6:50am 0.7ft  -  3s 7 9 mph 1029.6mb 36f 33f
5:50am 1ft 2s 3s 11
mph
1028.9mb 36f 33f
4:50am 1.3ft 3s 3s 11 13 mph 1028.1mb 36f 33f
3:50am 1.3ft 3s 3s 13 16 mph 1027.7mb 36f 33f
2:50am 1.6ft 3s 3s 13 16 mph 1027.7mb 36f 32f
1:50am 1.6ft 3s 3s 16 18 mph 1027.6mb 36f 32f
12:50am 1.3ft 3s 3s 13
mph
1027.7mb 36f 32f
Tue 03/24 11:50pm 1.3ft 3s 3s 13 16 mph 1027.7mb 36f 32f
10:50pm 1.3ft 3s 3s 13 16 mph 1027.5mb 36f 32f
9:50pm 1.3ft 3s 3s 16 18 mph 1027.6mb 36f 32f
8:50pm 1.3ft 5s 3s 13 16 mph 1027.5mb 36f 32f
7:50pm 1.3ft 5s 4s 13
mph
1026.9mb 36f 32f
6:50pm 1.3ft 5s 4s 11 13 mph 1026.4mb 36f 32f
5:50pm 1.3ft 5s 4s 11
mph
1026.2mb 37f 32f
4:50pm 1.6ft 5s 4s 7
mph
1025.8mb 37f 31f
3:50pm 1.3ft 5s 4s 4 7 mph 1026mb 37f 30f
2:50pm 1.6ft 5s 4s 2 4 mph 1026.2mb 37f 30f
1:50pm 2ft 5s 4s 2
mph
1026.9mb 36f 30f
12:50pm 2ft 5s 4s 4
mph
1027.3mb 36f 28f
11:50am 1.6ft 4s 4s 9 11 mph 1027.4mb 36f 28f
10:50am 2ft 4s 4s 9 11 mph 1027.7mb 36f 27f
9:50am 2ft 5s 4s 9 13 mph 1027.6mb 35f 26f
8:50am 2.5ft 5s 4s 11 13 mph 1027.1mb 35f 26f
7:50am 2.5ft 5s 4s 11 16 mph 1026.7mb 35f 25f
6:50am 2.5ft 5s 4s 13 18 mph 1025.9mb 35f 24f
5:50am 2.5ft 5s 4s 16 18 mph 1025.4mb 35f 24f
4:50am 2.5ft 5s 4s 16 20 mph 1024.7mb 35f 24f
3:50am 2.5ft 5s 4s 16 18 mph 1024.2mb 36f 25f
2:50am 2.5ft 3s 3s 18 20 mph 1023.7mb 36f 25f
1:50am 2.5ft 4s 3s 18 20 mph 1023.4mb 36f 25f
12:50am 2.5ft 4s 3s 16 20 mph 1023.6mb 36f 26f
Mon 03/23 11:50pm 2ft 4s 3s 16 20 mph 1023.2mb 36f 28f
10:50pm 2.5ft 4s 3s 18 22 mph 1022.7mb 36f 29f
9:50pm 2ft 3s 3s 20 25 mph 1022.1mb 36f 30f
8:50pm 2.5ft 4s 3s 16 20 mph 1021.9mb 36f 31f
7:50pm 2.5ft 4s 3s 22 25 mph 1020.7mb 36f 31f
6:50pm 2.5ft 4s 3s 22 27 mph 1019.7mb 36f 31f
5:50pm 2.5ft 3s 3s 20 22 mph 1019mb 36f 31f
4:50pm 2.5ft 4s 3s 18 22 mph 1018.4mb 36f 30f
3:50pm 2.5ft 4s 3s 18 25 mph 1018.2mb 36f 28f
2:50pm 3ft 4s 4s 22 27 mph 1018.1mb 36f 26f
1:50pm 3ft 4s 4s 20 25 mph 1018.7mb 36f 25f